createdAt,value
2019-06-02T00:02:11.694Z,6.20
2019-06-02T00:04:40.596Z,6.33
2019-06-02T00:07:10.396Z,6.17
2019-06-02T00:09:39.267Z,6.33
2019-06-02T00:12:07.239Z,6.30
2019-06-02T00:14:38.946Z,5.72
2019-06-02T00:17:06.657Z,5.80
2019-06-02T00:19:35.518Z,5.70
2019-06-02T00:24:33.813Z,6.00
2019-06-02T00:27:02.046Z,5.80
2019-06-02T00:29:30.433Z,5.85
2019-06-02T00:31:59.439Z,5.25
2019-06-02T00:34:27.925Z,5.90
2019-06-02T00:39:27.251Z,5.90
2019-06-02T00:41:55.536Z,5.70
2019-06-02T00:44:23.489Z,5.42
2019-06-02T00:46:52.465Z,5.53
2019-06-02T00:49:22.028Z,5.70
2019-06-02T00:51:51.464Z,5.47
2019-06-02T00:54:21.378Z,5.70
2019-06-02T00:56:49.983Z,5.50
2019-06-02T00:59:22.981Z,5.40
2019-06-02T01:01:51.963Z,5.15
2019-06-02T01:04:21.366Z,5.00
2019-06-02T01:06:49.921Z,4.90
2019-06-02T01:09:19.121Z,5.10
2019-06-02T01:11:48.205Z,5.92
2019-06-02T01:14:17.529Z,5.40
2019-06-02T01:16:45.757Z,5.72
2019-06-02T01:19:14.036Z,5.90
2019-06-02T01:21:42.419Z,5.50
2019-06-02T01:24:11.129Z,5.60
2019-06-02T01:26:39.737Z,5.60
2019-06-02T01:29:08.654Z,5.30
2019-06-02T01:31:42.245Z,6.28
2019-06-02T01:36:35.804Z,5.80
2019-06-02T01:39:05.630Z,5.97
2019-06-02T01:41:34.310Z,6.40
2019-06-02T01:44:03.384Z,7.83
2019-06-02T01:46:32.205Z,7.40
2019-06-02T01:49:00.248Z,7.00
2019-06-02T01:51:28.800Z,6.62
2019-06-02T01:53:57.073Z,6.83
2019-06-02T01:56:25.371Z,6.62
2019-06-02T01:58:53.747Z,6.20
2019-06-02T02:03:50.292Z,6.20
2019-06-02T02:06:18.533Z,6.50
2019-06-02T02:08:46.733Z,6.17
2019-06-02T02:11:15.126Z,6.80
2019-06-02T02:13:43.085Z,6.20
2019-06-02T02:16:11.043Z,8.17
2019-06-02T02:18:39.789Z,6.35
2019-06-02T02:21:08.537Z,7.20
2019-06-02T02:23:38.026Z,9.15
2019-06-02T02:26:06.985Z,8.90
2019-06-02T02:31:03.583Z,8.53
2019-06-02T02:33:31.517Z,8.17
2019-06-02T02:35:59.459Z,7.75
2019-06-02T02:38:27.699Z,7.80
2019-06-02T02:40:55.988Z,7.83
2019-06-02T02:46:11.248Z,8.20
2019-06-02T02:48:22.351Z,8.20
2019-06-02T02:53:19.938Z,7.50
2019-06-02T02:55:48.419Z,7.70
2019-06-02T02:58:17.745Z,7.55
2019-06-02T03:00:48.252Z,6.83
2019-06-02T03:03:16.007Z,8.28
2019-06-02T03:05:46.321Z,8.00
2019-06-02T03:08:14.442Z,8.48
2019-06-02T03:10:46.277Z,8.23
2019-06-02T03:13:15.609Z,8.28
2019-06-02T03:15:45.829Z,9.23
2019-06-02T03:20:43.935Z,8.75
2019-06-02T03:23:12.111Z,9.15
2019-06-02T03:25:42.793Z,8.70
2019-06-02T03:28:11.018Z,8.40
2019-06-02T03:30:48.747Z,11.38
2019-06-02T03:35:49.674Z,10.50
2019-06-02T03:38:10.527Z,10.90
2019-06-02T03:40:40.045Z,11.65
2019-06-02T03:43:08.834Z,10.60
2019-06-02T03:45:37.740Z,11.37
2019-06-02T03:48:06.289Z,11.90
2019-06-02T03:50:34.641Z,10.67
2019-06-02T03:53:02.630Z,9.93
2019-06-02T03:57:59.577Z,11.05
2019-06-02T04:00:27.571Z,9.68
2019-06-02T04:02:55.841Z,11.25
2019-06-02T04:05:24.060Z,12.40
2019-06-02T04:07:53.020Z,10.65
2019-06-02T04:12:51.376Z,11.03
2019-06-02T04:15:20.998Z,12.73
2019-06-02T04:17:51.056Z,12.58
2019-06-02T04:20:18.666Z,13.70
2019-06-02T04:22:49.104Z,12.07
2019-06-02T04:27:46.478Z,13.20
2019-06-02T04:30:14.899Z,13.03
2019-06-02T04:32:44.821Z,12.58
2019-06-02T04:35:13.382Z,12.88
2019-06-02T04:40:09.938Z,12.47
2019-06-02T04:42:37.936Z,13.00
2019-06-02T04:45:06.637Z,12.40
2019-06-02T04:47:37.603Z,12.47
2019-06-02T04:50:05.101Z,12.00
2019-06-02T04:52:33.056Z,11.70
2019-06-02T04:55:01.065Z,11.30
2019-06-02T04:57:29.398Z,11.28
2019-06-02T04:59:57.387Z,11.78
2019-06-02T05:02:25.962Z,11.10
2019-06-02T05:04:54.541Z,11.28
2019-06-02T05:07:24.667Z,10.90
2019-06-02T05:09:52.713Z,11.20
2019-06-02T05:12:20.612Z,10.32
2019-06-02T05:14:48.678Z,9.83
2019-06-02T05:19:46.550Z,10.10
2019-06-02T05:22:15.150Z,10.05
2019-06-02T05:24:44.585Z,9.83
2019-06-02T05:27:13.143Z,10.28
2019-06-02T05:29:41.405Z,9.68
2019-06-02T05:32:09.416Z,9.60
2019-06-02T05:34:37.389Z,9.93
2019-06-02T05:37:08.688Z,8.83
2019-06-02T05:39:35.040Z,8.80
2019-06-02T05:42:02.983Z,9.70
2019-06-02T05:46:58.971Z,8.40
2019-06-02T05:49:27.212Z,14.75
2019-06-02T05:51:56.675Z,11.80
2019-06-02T05:54:28.013Z,9.95
2019-06-02T05:56:55.158Z,10.48
2019-06-02T05:59:23.494Z,9.60
2019-06-02T06:01:51.657Z,8.95
2019-06-02T06:04:19.650Z,9.45
2019-06-02T06:06:48.215Z,8.88
2019-06-02T06:09:16.288Z,9.48
2019-06-02T06:14:12.279Z,9.13
2019-06-02T06:16:40.233Z,9.60
2019-06-02T06:19:08.185Z,9.00
2019-06-02T06:21:36.209Z,9.53
2019-06-02T06:24:04.179Z,8.65
2019-06-02T06:26:32.606Z,8.90
2019-06-02T06:29:01.492Z,8.85
2019-06-02T06:31:30.075Z,8.28
2019-06-02T06:33:58.021Z,7.90
2019-06-02T06:36:26.507Z,7.97
2019-06-02T06:39:06.543Z,7.78
2019-06-02T06:41:24.398Z,7.90
2019-06-02T06:43:52.693Z,8.15
2019-06-02T06:46:21.440Z,8.40
2019-06-02T06:48:51.207Z,9.60
2019-06-02T06:51:19.733Z,7.40
2019-06-02T06:53:47.774Z,6.95
2019-06-02T06:56:15.919Z,6.60
2019-06-02T06:58:44.155Z,6.90
2019-06-02T07:01:12.465Z,7.08
2019-06-02T07:06:08.663Z,6.45
2019-06-02T07:08:36.771Z,6.30
2019-06-02T07:11:08.745Z,6.00
2019-06-02T07:13:34.574Z,6.17
2019-06-02T07:16:11.780Z,5.40
2019-06-02T07:18:40.751Z,5.00
2019-06-02T07:21:09.000Z,4.70
2019-06-02T07:23:37.438Z,4.58
2019-06-02T07:26:07.097Z,4.70
2019-06-02T07:28:35.805Z,4.40
2019-06-02T07:31:05.415Z,4.10
2019-06-02T07:33:33.489Z,4.63
2019-06-02T07:36:03.990Z,4.00
2019-06-02T07:38:32.077Z,4.00
2019-06-02T07:41:00.443Z,4.10
2019-06-02T07:43:28.384Z,3.85
2019-06-02T07:45:56.317Z,3.60
2019-06-02T07:48:24.834Z,4.33
2019-06-02T07:53:22.054Z,3.90
2019-06-02T07:55:50.042Z,4.20
2019-06-02T07:58:18.402Z,4.20
2019-06-02T08:00:47.515Z,3.95
2019-06-02T08:03:15.913Z,3.80
2019-06-02T08:08:12.085Z,3.77
2019-06-02T08:10:40.113Z,3.70
2019-06-02T08:13:08.728Z,3.08
2019-06-02T08:15:36.724Z,3.40
2019-06-02T08:18:06.920Z,3.80
2019-06-02T08:20:34.880Z,3.70
2019-06-02T08:23:04.813Z,3.55
2019-06-02T08:25:33.539Z,3.65
2019-06-02T08:28:02.776Z,3.37
2019-06-02T08:30:31.224Z,3.22
2019-06-02T08:35:28.712Z,3.50
2019-06-02T08:37:56.698Z,3.30
2019-06-02T08:42:53.881Z,3.10
2019-06-02T08:45:22.047Z,3.55
2019-06-02T08:47:50.650Z,3.10
2019-06-02T08:50:19.993Z,3.10
2019-06-02T08:52:49.778Z,3.10
2019-06-02T08:55:18.953Z,2.90
2019-06-02T08:57:47.808Z,3.37
2019-06-02T09:00:16.822Z,3.33
2019-06-02T09:02:45.848Z,3.03
2019-06-02T09:05:16.024Z,3.45
2019-06-02T09:07:45.008Z,4.25
2019-06-02T09:10:14.003Z,3.40
2019-06-02T09:12:42.345Z,3.20
2019-06-02T09:15:13.362Z,3.90
2019-06-02T09:17:43.186Z,3.62
2019-06-02T09:20:27.399Z,3.45
2019-06-02T09:22:44.121Z,2.97
2019-06-02T09:27:42.929Z,3.50
2019-06-02T09:30:14.158Z,3.10
2019-06-02T09:32:44.508Z,3.08
2019-06-02T09:35:18.097Z,3.30
2019-06-02T09:37:44.818Z,3.20
2019-06-02T09:40:15.529Z,2.87
2019-06-02T09:42:46.821Z,2.50
2019-06-02T09:45:16.558Z,2.90
2019-06-02T09:47:46.060Z,2.70
2019-06-02T09:50:15.638Z,3.00
2019-06-02T09:52:54.895Z,3.20
2019-06-02T09:55:18.043Z,2.87
2019-06-02T09:57:46.739Z,3.08
2019-06-02T10:00:21.765Z,2.50
2019-06-02T10:02:47.780Z,2.80
2019-06-02T10:05:17.523Z,3.00
2019-06-02T10:07:48.634Z,3.40
2019-06-02T10:10:19.673Z,3.30
2019-06-02T10:12:49.334Z,3.00
2019-06-02T10:15:18.120Z,3.30
2019-06-02T10:17:46.499Z,3.35
2019-06-02T10:20:16.631Z,3.50
2019-06-02T10:22:45.738Z,3.20
2019-06-02T10:25:16.481Z,3.20
2019-06-02T10:27:45.667Z,3.10
2019-06-02T10:30:15.118Z,5.70
2019-06-02T10:32:43.821Z,3.40
2019-06-02T10:35:14.668Z,4.40
2019-06-02T10:37:42.378Z,3.22
2019-06-02T10:40:11.533Z,2.90
2019-06-02T10:42:40.473Z,3.00
2019-06-02T10:45:10.405Z,3.20
2019-06-02T10:47:38.913Z,3.20
2019-06-02T10:50:13.109Z,3.50
2019-06-02T10:52:37.220Z,2.97
2019-06-02T10:55:05.631Z,3.20
2019-06-02T10:57:33.962Z,2.95
2019-06-02T11:00:04.556Z,2.83
2019-06-02T11:02:32.727Z,3.10
2019-06-02T11:05:01.217Z,2.90
2019-06-02T11:07:29.887Z,2.80
2019-06-02T11:10:04.591Z,3.00
2019-06-02T11:12:36.587Z,2.98
2019-06-02T11:15:11.628Z,3.00
2019-06-02T11:17:43.929Z,3.10
2019-06-02T11:20:13.852Z,2.83
2019-06-02T11:22:47.880Z,2.60
2019-06-02T11:25:16.379Z,2.60
2019-06-02T11:27:45.902Z,2.40
2019-06-02T11:30:16.991Z,2.50
2019-06-02T11:32:46.211Z,2.50
2019-06-02T11:35:17.266Z,2.70
2019-06-02T11:37:46.089Z,2.52
2019-06-02T11:40:17.939Z,2.67
2019-06-02T11:42:48.143Z,2.80
2019-06-02T11:45:18.451Z,2.77
2019-06-02T11:47:48.116Z,2.77
2019-06-02T11:50:17.134Z,2.80
2019-06-02T11:52:46.329Z,2.80
2019-06-02T11:55:16.320Z,2.90
2019-06-02T11:57:45.051Z,2.67
2019-06-02T12:00:14.468Z,2.80
2019-06-02T12:02:43.345Z,2.60
2019-06-02T12:05:12.169Z,2.62
2019-06-02T12:07:40.880Z,2.80
2019-06-02T12:10:10.568Z,2.47
2019-06-02T12:12:40.165Z,2.50
2019-06-02T12:15:10.466Z,2.70
2019-06-02T12:17:39.213Z,2.40
2019-06-02T12:20:08.262Z,2.60
2019-06-02T12:22:37.730Z,2.40
2019-06-02T12:25:08.534Z,2.60
2019-06-02T12:27:39.270Z,2.70
2019-06-02T12:30:10.224Z,2.50
2019-06-02T12:32:40.349Z,2.40
2019-06-02T12:35:11.111Z,2.25
2019-06-02T12:37:41.512Z,2.20
2019-06-02T12:40:11.147Z,2.33
2019-06-02T12:42:42.556Z,2.40
2019-06-02T12:45:12.681Z,2.33
2019-06-02T12:47:43.239Z,2.20
2019-06-02T12:50:12.474Z,2.40
2019-06-02T12:52:44.067Z,2.40
2019-06-02T12:55:14.635Z,1.92
2019-06-02T12:57:44.628Z,2.10
2019-06-02T13:00:13.411Z,2.02
2019-06-02T13:02:41.678Z,2.30
2019-06-02T13:05:10.463Z,2.10
2019-06-02T13:07:39.387Z,1.90
2019-06-02T13:10:09.829Z,2.20
2019-06-02T13:12:38.093Z,1.90
2019-06-02T13:15:06.865Z,1.95
2019-06-02T13:17:36.412Z,2.10
2019-06-02T13:20:08.758Z,1.80
2019-06-02T13:22:50.198Z,2.00
2019-06-02T13:25:12.361Z,2.10
2019-06-02T13:27:44.832Z,2.20
2019-06-02T13:30:13.375Z,2.35
2019-06-02T13:32:41.627Z,2.25
2019-06-02T13:35:10.431Z,2.20
2019-06-02T13:37:38.836Z,2.02
2019-06-02T13:40:06.992Z,2.13
2019-06-02T13:42:35.445Z,2.20
2019-06-02T13:45:03.447Z,2.17
2019-06-02T13:47:34.720Z,2.10
2019-06-02T13:50:01.892Z,2.10
2019-06-02T13:52:30.108Z,2.13
2019-06-02T13:54:58.963Z,2.17
2019-06-02T13:57:27.931Z,2.00
2019-06-02T13:59:57.265Z,2.30
2019-06-02T14:02:26.526Z,2.10
2019-06-02T14:04:55.130Z,1.90
2019-06-02T14:07:24.323Z,1.90
2019-06-02T14:09:53.081Z,1.70
2019-06-02T14:12:22.495Z,1.72
2019-06-02T14:14:51.597Z,1.70
2019-06-02T14:17:20.548Z,1.95
2019-06-02T14:19:48.843Z,1.80
2019-06-02T14:22:17.387Z,1.70
2019-06-02T14:24:45.705Z,2.25
2019-06-02T14:27:14.699Z,2.23
2019-06-02T14:29:44.157Z,1.80
2019-06-02T14:32:12.561Z,2.02
2019-06-02T14:34:41.094Z,2.00
2019-06-02T14:37:10.248Z,2.10
2019-06-02T14:39:38.689Z,1.80
2019-06-02T14:42:07.186Z,2.00
2019-06-02T14:44:36.295Z,3.08
2019-06-02T14:47:06.516Z,2.20
2019-06-02T14:49:36.585Z,2.30
2019-06-02T14:52:06.086Z,2.70
2019-06-02T14:54:36.995Z,1.70
2019-06-02T14:57:07.420Z,1.77
2019-06-02T14:59:37.557Z,1.90
2019-06-02T15:02:08.440Z,2.40
2019-06-02T15:04:40.274Z,2.60
2019-06-02T15:07:10.320Z,2.65
2019-06-02T15:09:41.440Z,6.42
2019-06-02T15:12:11.552Z,3.60
2019-06-02T15:14:41.737Z,1.80
2019-06-02T15:17:12.546Z,1.80
2019-06-02T15:19:43.712Z,2.10
2019-06-02T15:22:13.176Z,1.80
2019-06-02T15:24:42.816Z,1.40
2019-06-02T15:27:12.807Z,1.60
2019-06-02T15:30:02.730Z,1.63
2019-06-02T15:32:32.763Z,1.70
2019-06-02T15:35:03.956Z,1.60
2019-06-02T15:37:34.911Z,1.50
2019-06-02T15:40:05.618Z,1.55
2019-06-02T15:42:35.480Z,1.50
2019-06-02T15:45:07.341Z,1.57
2019-06-02T15:47:38.415Z,2.00
2019-06-02T15:50:09.402Z,1.90
2019-06-02T15:52:40.491Z,1.50
2019-06-02T15:55:14.440Z,2.00
2019-06-02T15:57:49.275Z,12.37
2019-06-02T16:00:24.510Z,1.82
2019-06-02T16:03:01.277Z,1.50
2019-06-02T16:05:29.882Z,2.20
2019-06-02T16:08:00.850Z,1.60
2019-06-02T16:10:30.233Z,1.30
2019-06-02T16:13:00.385Z,1.50
2019-06-02T16:15:35.086Z,1.40
2019-06-02T16:18:04.892Z,1.50
2019-06-02T16:20:35.403Z,1.60
2019-06-02T16:23:04.356Z,1.37
2019-06-02T16:25:33.621Z,1.50
2019-06-02T16:28:04.033Z,1.30
2019-06-02T16:30:34.696Z,1.30
2019-06-02T16:33:06.078Z,1.37
2019-06-02T16:35:35.520Z,1.30
2019-06-02T16:38:05.191Z,1.40
2019-06-02T16:40:33.935Z,1.60
2019-06-02T16:43:02.170Z,1.50
2019-06-02T16:45:31.671Z,2.30
2019-06-02T16:48:01.122Z,1.95
2019-06-02T16:50:30.221Z,1.85
2019-06-02T16:52:59.907Z,1.42
2019-06-02T16:55:39.414Z,1.60
2019-06-02T16:58:08.209Z,1.70
2019-06-02T17:00:45.154Z,1.70
2019-06-02T17:03:29.913Z,1.50
2019-06-02T17:06:11.042Z,1.60
2019-06-02T17:08:49.952Z,1.30
2019-06-02T17:11:20.508Z,1.30
2019-06-02T17:13:53.861Z,1.50
2019-06-02T17:16:26.793Z,1.30
2019-06-02T17:19:05.234Z,1.60
2019-06-02T17:21:33.376Z,4.47
2019-06-02T17:24:06.955Z,2.70
2019-06-02T17:26:41.728Z,1.60
2019-06-02T17:29:22.777Z,1.60
2019-06-02T17:32:01.059Z,1.60
2019-06-02T17:34:38.225Z,1.80
2019-06-02T17:37:15.192Z,1.90
2019-06-02T17:39:55.424Z,2.10
2019-06-02T17:42:41.671Z,2.50
2019-06-02T17:45:19.485Z,1.60
2019-06-02T17:48:02.440Z,1.77
2019-06-02T17:50:41.590Z,1.40
2019-06-02T17:53:17.174Z,1.82
2019-06-02T17:55:48.235Z,1.40
2019-06-02T17:58:19.968Z,1.40
2019-06-02T18:00:51.304Z,1.70
2019-06-02T18:03:23.679Z,1.40
2019-06-02T18:05:54.583Z,1.80
2019-06-02T18:08:24.598Z,1.60
2019-06-02T18:10:55.509Z,1.80
2019-06-02T18:13:26.236Z,2.00
2019-06-02T18:15:55.979Z,1.82
2019-06-02T18:18:26.234Z,1.80
2019-06-02T18:20:57.340Z,1.80
2019-06-02T18:23:27.536Z,1.60
2019-06-02T18:26:00.455Z,1.80
2019-06-02T18:28:33.517Z,2.62
2019-06-02T18:31:02.827Z,2.42
2019-06-02T18:33:33.032Z,2.50
2019-06-02T18:36:02.792Z,2.50
2019-06-02T18:38:33.702Z,1.90
2019-06-02T18:41:04.608Z,2.22
2019-06-02T18:43:35.190Z,2.02
2019-06-02T18:46:06.379Z,2.12
2019-06-02T18:48:38.322Z,2.00
2019-06-02T18:51:11.421Z,2.20
2019-06-02T18:53:42.172Z,2.15
2019-06-02T18:56:12.471Z,2.17
2019-06-02T18:58:43.052Z,2.10
2019-06-02T19:01:14.659Z,2.17
2019-06-02T19:03:45.463Z,2.40
2019-06-02T19:06:16.596Z,2.10
2019-06-02T19:08:47.927Z,2.10
2019-06-02T19:11:19.193Z,2.40
2019-06-02T19:13:50.522Z,1.80
2019-06-02T19:16:21.207Z,2.40
2019-06-02T19:18:51.500Z,2.20
2019-06-02T19:21:20.060Z,2.10
2019-06-02T19:23:50.003Z,2.30
2019-06-02T19:26:23.913Z,2.30
2019-06-02T19:28:50.035Z,2.20
2019-06-02T19:31:18.243Z,2.40
2019-06-02T19:33:48.388Z,2.50
2019-06-02T19:36:17.091Z,2.20
2019-06-02T19:38:45.448Z,2.30
2019-06-02T19:41:15.217Z,3.30
2019-06-02T19:43:44.083Z,3.10
2019-06-02T19:46:13.336Z,2.97
2019-06-02T19:48:45.061Z,2.60
2019-06-02T19:51:13.651Z,2.50
2019-06-02T19:53:42.611Z,2.58
2019-06-02T19:56:10.996Z,2.37
2019-06-02T19:58:39.401Z,2.40
2019-06-02T20:01:08.398Z,2.93
2019-06-02T20:03:36.584Z,3.17
2019-06-02T20:06:05.336Z,2.83
2019-06-02T20:08:33.696Z,2.90
2019-06-02T20:11:02.232Z,3.10
2019-06-02T20:13:30.934Z,2.80
2019-06-02T20:15:59.997Z,2.77
2019-06-02T20:18:29.013Z,2.60
2019-06-02T20:20:57.942Z,2.60
2019-06-02T20:23:26.357Z,2.67
2019-06-02T20:25:54.687Z,2.60
2019-06-02T20:28:25.301Z,2.40
2019-06-02T20:30:54.440Z,2.77
2019-06-02T20:33:24.334Z,2.70
2019-06-02T20:35:57.861Z,3.00
2019-06-02T20:38:34.369Z,2.80
2019-06-02T20:41:08.644Z,2.90
2019-06-02T20:43:35.403Z,2.60
2019-06-02T20:46:04.204Z,2.70
2019-06-02T20:48:33.952Z,3.00
2019-06-02T20:51:03.769Z,3.00
2019-06-02T20:53:32.158Z,3.08
2019-06-02T20:56:02.715Z,3.05
2019-06-02T20:58:31.352Z,3.10
2019-06-02T21:01:00.730Z,2.80
2019-06-02T21:03:30.049Z,2.83
2019-06-02T21:05:59.174Z,3.33
2019-06-02T21:08:27.843Z,3.00
2019-06-02T21:10:57.313Z,3.30
2019-06-02T21:13:25.628Z,2.90
2019-06-02T21:15:54.402Z,2.90
2019-06-02T21:18:23.250Z,2.92
2019-06-02T21:20:51.901Z,3.00
2019-06-02T21:23:20.074Z,2.90
2019-06-02T21:25:49.140Z,3.10
2019-06-02T21:28:19.633Z,2.70
2019-06-02T21:30:48.454Z,3.20
2019-06-02T21:33:17.068Z,2.90
2019-06-02T21:35:46.452Z,3.05
2019-06-02T21:38:14.914Z,3.10
2019-06-02T21:40:43.800Z,3.00
2019-06-02T21:43:11.901Z,2.92
2019-06-02T21:45:40.890Z,2.92
2019-06-02T21:48:10.705Z,3.20
2019-06-02T21:50:40.154Z,3.12
2019-06-02T21:53:10.764Z,2.90
2019-06-02T21:55:41.243Z,2.90
2019-06-02T21:58:11.498Z,3.00
2019-06-02T22:01:03.521Z,3.15
2019-06-02T22:03:33.683Z,3.40
2019-06-02T22:06:11.358Z,2.80
2019-06-02T22:08:33.321Z,2.90
2019-06-02T22:11:03.385Z,2.90
2019-06-02T22:13:31.618Z,3.08
2019-06-02T22:16:01.877Z,2.90
2019-06-02T22:18:30.994Z,3.10
2019-06-02T22:20:59.922Z,2.80
2019-06-02T22:23:29.085Z,2.70
2019-06-02T22:25:58.359Z,3.17
2019-06-02T22:30:01.777Z,3.05
2019-06-02T22:32:30.829Z,3.20
2019-06-02T22:37:28.801Z,3.30
2019-06-02T22:39:57.533Z,3.10
2019-06-02T22:44:54.625Z,2.80
2019-06-02T22:47:23.355Z,3.10
2019-06-02T22:52:23.086Z,3.10
2019-06-02T22:54:52.183Z,3.20
2019-06-02T22:57:22.388Z,2.97
2019-06-02T22:59:50.814Z,3.00
2019-06-02T23:02:19.590Z,3.00
2019-06-02T23:04:48.346Z,3.20
2019-06-02T23:07:17.498Z,3.08
2019-06-02T23:09:47.559Z,3.02
2019-06-02T23:12:18.432Z,3.30
2019-06-02T23:14:47.733Z,3.15
2019-06-02T23:17:17.540Z,3.30
2019-06-02T23:19:46.712Z,3.30
2019-06-02T23:22:15.151Z,3.10
2019-06-02T23:24:44.855Z,3.20
2019-06-02T23:27:15.229Z,3.40
2019-06-02T23:29:44.181Z,3.30
2019-06-02T23:32:14.144Z,3.20
2019-06-02T23:34:43.793Z,3.30
2019-06-02T23:37:13.497Z,3.40
2019-06-02T23:39:42.986Z,3.10
2019-06-02T23:42:12.430Z,3.30
2019-06-02T23:47:10.243Z,3.20
2019-06-02T23:49:39.125Z,3.12
2019-06-02T23:54:37.382Z,3.90
2019-06-02T23:57:06.199Z,3.40
2019-06-02T23:59:35.226Z,3.20
